sensor_id;sensor_type;location;lat;lon;timestamp;pressure;altitude;pressure_sealevel;temperature;humidity
29433;BME280;16405;53.964;13.448;2023-04-10T00:00:18;102321.38;;;-0.32;91.74
29433;BME280;16405;53.964;13.448;2023-04-10T00:02:44;102310.88;;;-0.38;91.98
29433;BME280;16405;53.964;13.448;2023-04-10T00:05:10;102313.41;;;-0.41;92.12
29433;BME280;16405;53.964;13.448;2023-04-10T00:07:36;102317.69;;;-0.42;92.32
29433;BME280;16405;53.964;13.448;2023-04-10T00:10:04;102316.88;;;-0.40;92.24
29433;BME280;16405;53.964;13.448;2023-04-10T00:12:30;102313.47;;;-0.38;92.54
29433;BME280;16405;53.964;13.448;2023-04-10T00:14:56;102316.66;;;-0.48;93.38
29433;BME280;16405;53.964;13.448;2023-04-10T00:17:22;102309.75;;;-0.49;96.45
29433;BME280;16405;53.964;13.448;2023-04-10T00:19:48;102310.69;;;-0.47;98.93
29433;BME280;16405;53.964;13.448;2023-04-10T00:22:15;102312.63;;;-0.37;100.00
29433;BME280;16405;53.964;13.448;2023-04-10T00:24:43;102314.56;;;-0.28;100.00
29433;BME280;16405;53.964;13.448;2023-04-10T00:27:09;102313.69;;;-0.29;100.00
29433;BME280;16405;53.964;13.448;2023-04-10T00:29:35;102314.69;;;-0.24;100.00
29433;BME280;16405;53.964;13.448;2023-04-10T00:32:00;102307.78;;;-0.23;100.00
29433;BME280;16405;53.964;13.448;2023-04-10T00:34:26;102310.31;;;-0.25;100.00
29433;BME280;16405;53.964;13.448;2023-04-10T00:36:52;102308.66;;;-0.23;100.00
29433;BME280;16405;53.964;13.448;2023-04-10T00:39:18;102297.50;;;-0.20;100.00
29433;BME280;16405;53.964;13.448;2023-04-10T00:41:44;102299.25;;;-0.17;100.00
29433;BME280;16405;53.964;13.448;2023-04-10T00:44:10;102297.53;;;-0.18;100.00
29433;BME280;16405;53.964;13.448;2023-04-10T00:46:37;102294.88;;;-0.22;100.00
29433;BME280;16405;53.964;13.448;2023-04-10T00:49:04;102290.44;;;-0.27;100.00
29433;BME280;16405;53.964;13.448;2023-04-10T00:51:31;102287.88;;;-0.26;100.00
29433;BME280;16405;53.964;13.448;2023-04-10T00:53:57;102289.56;;;-0.26;100.00
29433;BME280;16405;53.964;13.448;2023-04-10T00:56:24;102289.66;;;-0.23;100.00
29433;BME280;16405;53.964;13.448;2023-04-10T00:58:50;102281.09;;;-0.21;100.00
29433;BME280;16405;53.964;13.448;2023-04-10T01:01:18;102277.63;;;-0.19;100.00
29433;BME280;16405;53.964;13.448;2023-04-10T01:03:44;102277.63;;;-0.19;100.00
29433;BME280;16405;53.964;13.448;2023-04-10T01:09:29;102278.34;;;-0.27;100.00
29433;BME280;16405;53.964;13.448;2023-04-10T01:15:03;102280.69;;;-0.37;100.00
29433;BME280;16405;53.964;13.448;2023-04-10T01:17:39;102272.88;;;-0.40;100.00
29433;BME280;16405;53.964;13.448;2023-04-10T01:20:13;102270.25;;;-0.42;100.00
29433;BME280;16405;53.964;13.448;2023-04-10T01:31:36;102272.72;;;-0.47;100.00
29433;BME280;16405;53.964;13.448;2023-04-10T01:34:09;102261.66;;;-0.41;100.00
29433;BME280;16405;53.964;13.448;2023-04-10T01:36:55;102258.25;;;-0.37;100.00
29433;BME280;16405;53.964;13.448;2023-04-10T01:39:25;102265.16;;;-0.37;100.00
29433;BME280;16405;53.964;13.448;2023-04-10T01:41:53;102266.88;;;-0.38;100.00
29433;BME280;16405;53.964;13.448;2023-04-10T01:44:29;102262.53;;;-0.39;100.00
29433;BME280;16405;53.964;13.448;2023-04-10T01:46:57;102262.53;;;-0.40;100.00
29433;BME280;16405;53.964;13.448;2023-04-10T01:49:27;102263.44;;;-0.38;100.00
29433;BME280;16405;53.964;13.448;2023-04-10T01:51:56;102260.78;;;-0.40;100.00
29433;BME280;16405;53.964;13.448;2023-04-10T01:54:28;102260.78;;;-0.40;100.00
29433;BME280;16405;53.964;13.448;2023-04-10T01:56:56;102258.16;;;-0.43;100.00
29433;BME280;16405;53.964;13.448;2023-04-10T01:59:22;102253.03;;;-0.40;100.00
29433;BME280;16405;53.964;13.448;2023-04-10T02:01:59;102256.47;;;-0.41;100.00
29433;BME280;16405;53.964;13.448;2023-04-10T02:04:26;102269.31;;;-0.44;100.00
29433;BME280;16405;53.964;13.448;2023-04-10T02:07:02;102265.78;;;-0.49;100.00
29433;BME280;16405;53.964;13.448;2023-04-10T02:09:55;102262.97;;;-0.57;100.00
29433;BME280;16405;53.964;13.448;2023-04-10T02:12:29;102260.19;;;-0.66;100.00
29433;BME280;16405;53.964;13.448;2023-04-10T02:15:00;102255.06;;;-0.63;100.00
29433;BME280;16405;53.964;13.448;2023-04-10T02:17:28;102256.84;;;-0.60;100.00
29433;BME280;16405;53.964;13.448;2023-04-10T02:19:56;102258.69;;;-0.56;100.00
29433;BME280;16405;53.964;13.448;2023-04-10T02:22:23;102259.69;;;-0.50;100.00
29433;BME280;16405;53.964;13.448;2023-04-10T02:24:51;102264.00;;;-0.52;100.00
29433;BME280;16405;53.964;13.448;2023-04-10T02:27:28;102251.09;;;-0.49;100.00
29433;BME280;16405;53.964;13.448;2023-04-10T02:29:53;102255.41;;;-0.49;100.00
29433;BME280;16405;53.964;13.448;2023-04-10T02:32:19;102254.66;;;-0.45;100.00
29433;BME280;16405;53.964;13.448;2023-04-10T02:34:45;102255.53;;;-0.45;100.00
29433;BME280;16405;53.964;13.448;2023-04-10T02:37:11;102253.00;;;-0.42;100.00
29433;BME280;16405;53.964;13.448;2023-04-10T02:39:37;102243.34;;;-0.49;100.00
29433;BME280;16405;53.964;13.448;2023-04-10T02:42:05;102249.47;;;-0.45;100.00
29433;BME280;16405;53.964;13.448;2023-04-10T02:44:31;102246.84;;;-0.47;100.00
29433;BME280;16405;53.964;13.448;2023-04-10T02:46:57;102248.53;;;-0.49;100.00
29433;BME280;16405;53.964;13.448;2023-04-10T02:49:23;102256.22;;;-0.52;100.00
29433;BME280;16405;53.964;13.448;2023-04-10T02:51:48;102262.19;;;-0.54;100.00
29433;BME280;16405;53.964;13.448;2023-04-10T02:54:14;102258.66;;;-0.58;100.00
29433;BME280;16405;53.964;13.448;2023-04-10T02:56:40;102261.91;;;-0.65;100.00
29433;BME280;16405;53.964;13.448;2023-04-10T02:59:06;102260.03;;;-0.72;100.00
29433;BME280;16405;53.964;13.448;2023-04-10T03:01:32;102264.19;;;-0.79;100.00
29433;BME280;16405;53.964;13.448;2023-04-10T03:03:58;102259.75;;;-0.83;100.00
29433;BME280;16405;53.964;13.448;2023-04-10T03:06:24;102251.91;;;-0.88;100.00
29433;BME280;16405;53.964;13.448;2023-04-10T03:08:53;102247.53;;;-0.90;100.00
29433;BME280;16405;53.964;13.448;2023-04-10T03:11:19;102254.38;;;-0.91;100.00
29433;BME280;16405;53.964;13.448;2023-04-10T03:13:45;102245.75;;;-0.91;100.00
29433;BME280;16405;53.964;13.448;2023-04-10T03:16:11;102248.34;;;-0.91;100.00
29433;BME280;16405;53.964;13.448;2023-04-10T03:18:40;102251.84;;;-0.89;100.00
29433;BME280;16405;53.964;13.448;2023-04-10T03:21:06;102246.78;;;-0.86;100.00
29433;BME280;16405;53.964;13.448;2023-04-10T03:23:32;102241.72;;;-0.80;100.00
29433;BME280;16405;53.964;13.448;2023-04-10T03:25:57;102247.91;;;-0.75;100.00
29433;BME280;16405;53.964;13.448;2023-04-10T03:28:23;102239.28;;;-0.74;100.00
29433;BME280;16405;53.964;13.448;2023-04-10T03:30:57;102239.94;;;-0.84;100.00
29433;BME280;16405;53.964;13.448;2023-04-10T03:33:23;102241.34;;;-0.95;100.00
29433;BME280;16405;53.964;13.448;2023-04-10T03:35:48;102237.72;;;-1.04;100.00
29433;BME280;16405;53.964;13.448;2023-04-10T03:38:14;102229.81;;;-1.10;100.00
29433;BME280;16405;53.964;13.448;2023-04-10T03:40:40;102225.34;;;-1.15;100.00
29433;BME280;16405;53.964;13.448;2023-04-10T03:43:06;102231.22;;;-1.21;100.00
29433;BME280;16405;53.964;13.448;2023-04-10T03:45:34;102226.78;;;-1.27;100.00
29433;BME280;16405;53.964;13.448;2023-04-10T03:48:00;102229.31;;;-1.28;100.00
29433;BME280;16405;53.964;13.448;2023-04-10T03:50:26;102230.16;;;-1.29;100.00
29433;BME280;16405;53.964;13.448;2023-04-10T03:52:52;102225.84;;;-1.29;100.00
29433;BME280;16405;53.964;13.448;2023-04-10T03:55:17;102232.75;;;-1.28;100.00
29433;BME280;16405;53.964;13.448;2023-04-10T03:57:47;102225.84;;;-1.29;100.00
29433;BME280;16405;53.964;13.448;2023-04-10T04:00:16;102231.91;;;-1.28;100.00
29433;BME280;16405;53.964;13.448;2023-04-10T04:02:42;102222.38;;;-1.31;100.00
29433;BME280;16405;53.964;13.448;2023-04-10T04:05:08;102226.69;;;-1.30;100.00
29433;BME280;16405;53.964;13.448;2023-04-10T04:07:35;102217.25;;;-1.29;100.00
29433;BME280;16405;53.964;13.448;2023-04-10T04:10:01;102209.50;;;-1.28;100.00
29433;BME280;16405;53.964;13.448;2023-04-10T04:12:29;102206.91;;;-1.28;100.00
29433;BME280;16405;53.964;13.448;2023-04-10T04:14:55;102206.97;;;-1.26;100.00
29433;BME280;16405;53.964;13.448;2023-04-10T04:17:21;102204.53;;;-1.20;100.00
29433;BME280;16405;53.964;13.448;2023-04-10T04:19:46;102207.34;;;-1.12;100.00
29433;BME280;16405;53.964;13.448;2023-04-10T04:22:12;102213.53;;;-1.06;100.00
29433;BME280;16405;53.964;13.448;2023-04-10T04:24:38;102210.94;;;-1.06;100.00
29433;BME280;16405;53.964;13.448;2023-04-10T04:27:04;102206.69;;;-1.04;100.00
29433;BME280;16405;53.964;13.448;2023-04-10T04:29:30;102209.19;;;-1.07;100.00
29433;BME280;16405;53.964;13.448;2023-04-10T04:31:56;102201.38;;;-1.08;100.00
29433;BME280;16405;53.964;13.448;2023-04-10T04:34:24;102201.53;;;-1.04;100.00
29433;BME280;16405;53.964;13.448;2023-04-10T04:36:50;102214.56;;;-0.99;100.00
29433;BME280;16405;53.964;13.448;2023-04-10T04:39:16;102214.81;;;-0.88;100.00
29433;BME280;16405;53.964;13.448;2023-04-10T04:41:42;102219.41;;;-0.76;100.00
29433;BME280;16405;53.964;13.448;2023-04-10T04:44:11;102211.91;;;-0.66;100.00
29433;BME280;16405;53.964;13.448;2023-04-10T04:46:40;102210.19;;;-0.65;100.00
29433;BME280;16405;53.964;13.448;2023-04-10T04:49:06;102215.59;;;-0.56;100.00
29433;BME280;16405;53.964;13.448;2023-04-10T04:51:31;102222.78;;;-0.43;100.00
29433;BME280;16405;53.964;13.448;2023-04-10T04:53:57;102220.34;;;-0.36;100.00
29433;BME280;16405;53.964;13.448;2023-04-10T04:56:23;102220.56;;;-0.26;100.00
29433;BME280;16405;53.964;13.448;2023-04-10T04:58:49;102220.81;;;-0.15;100.00
29433;BME280;16405;53.964;13.448;2023-04-10T05:01:23;102224.53;;;-0.02;100.00
29433;BME280;16405;53.964;13.448;2023-04-10T05:03:49;102226.53;;;0.11;100.00
29433;BME280;16405;53.964;13.448;2023-04-10T05:06:15;102225.13;;;0.27;100.00
29433;BME280;16405;53.964;13.448;2023-04-10T05:08:43;102228.94;;;0.46;100.00
29433;BME280;16405;53.964;13.448;2023-04-10T05:11:09;102238.84;;;0.69;100.00
29433;BME280;16405;53.964;13.448;2023-04-10T05:13:35;102226.09;;;0.79;100.00
29433;BME280;16405;53.964;13.448;2023-04-10T05:16:00;102236.53;;;0.84;100.00
29433;BME280;16405;53.964;13.448;2023-04-10T05:18:27;102240.25;;;0.98;99.98
29433;BME280;16405;53.964;13.448;2023-04-10T05:20:53;102238.81;;;1.16;99.44
29433;BME280;16405;53.964;13.448;2023-04-10T05:23:18;102238.34;;;1.38;98.49
29433;BME280;16405;53.964;13.448;2023-04-10T05:25:45;102232.47;;;1.52;98.01
29433;BME280;16405;53.964;13.448;2023-04-10T05:28:16;102245.69;;;1.70;96.87
29433;BME280;16405;53.964;13.448;2023-04-10T05:30:41;102252.00;;;1.86;96.25
29433;BME280;16405;53.964;13.448;2023-04-10T05:33:07;102255.66;;;2.02;95.49
29433;BME280;16405;53.964;13.448;2023-04-10T05:35:34;102262.78;;;2.15;95.24
29433;BME280;16405;53.964;13.448;2023-04-10T05:38:02;102256.91;;;2.32;94.70
29433;BME280;16405;53.964;13.448;2023-04-10T05:40:30;102269.22;;;2.48;94.10
29433;BME280;16405;53.964;13.448;2023-04-10T05:42:56;102261.72;;;2.76;93.30
29433;BME280;16405;53.964;13.448;2023-04-10T05:45:22;102255.94;;;3.06;92.31
29433;BME280;16405;53.964;13.448;2023-04-10T05:47:48;102252.72;;;3.36;91.31
29433;BME280;16405;53.964;13.448;2023-04-10T05:50:14;102254.69;;;3.66;90.66
29433;BME280;16405;53.964;13.448;2023-04-10T05:52:40;102254.84;;;3.94;89.39
29433;BME280;16405;53.964;13.448;2023-04-10T05:55:08;102253.25;;;4.25;88.32
29433;BME280;16405;53.964;13.448;2023-04-10T05:57:34;102256.72;;;4.23;87.50
29433;BME280;16405;53.964;13.448;2023-04-10T06:00:00;102249.69;;;4.08;87.01
29433;BME280;16405;53.964;13.448;2023-04-10T06:02:26;102254.16;;;4.35;86.34
29433;BME280;16405;53.964;13.448;2023-04-10T06:04:52;102256.91;;;4.84;85.58
29433;BME280;16405;53.964;13.448;2023-04-10T06:07:18;102256.06;;;5.30;83.27
29433;BME280;16405;53.964;13.448;2023-04-10T06:09:44;102253.41;;;5.61;81.65
29433;BME280;16405;53.964;13.448;2023-04-10T06:12:09;102249.09;;;5.04;81.13
29433;BME280;16405;53.964;13.448;2023-04-10T06:14:36;102244.72;;;4.99;81.26
29433;BME280;16405;53.964;13.448;2023-04-10T06:17:02;102239.53;;;5.14;81.22
29433;BME280;16405;53.964;13.448;2023-04-10T06:19:27;102253.34;;;6.05;80.28
29433;BME280;16405;53.964;13.448;2023-04-10T06:21:53;102258.38;;;6.53;78.60
29433;BME280;16405;53.964;13.448;2023-04-10T06:24:19;102265.00;;;7.11;76.98
29433;BME280;16405;53.964;13.448;2023-04-10T06:26:45;102261.66;;;6.86;76.43
29433;BME280;16405;53.964;13.448;2023-04-10T06:29:11;102264.38;;;6.67;76.00
29433;BME280;16405;53.964;13.448;2023-04-10T06:31:37;102264.44;;;6.58;76.99
29433;BME280;16405;53.964;13.448;2023-04-10T06:34:05;102260.16;;;6.45;77.14
29433;BME280;16405;53.964;13.448;2023-04-10T06:36:31;102259.47;;;5.86;78.16
29433;BME280;16405;53.964;13.448;2023-04-10T06:38:57;102258.63;;;5.65;78.99
29433;BME280;16405;53.964;13.448;2023-04-10T06:41:23;102250.81;;;5.54;79.62
29433;BME280;16405;53.964;13.448;2023-04-10T06:43:49;102256.84;;;5.87;80.48
29433;BME280;16405;53.964;13.448;2023-04-10T06:46:15;102262.94;;;6.02;80.94
29433;BME280;16405;53.964;13.448;2023-04-10T06:48:41;102249.94;;;5.57;81.60
29433;BME280;16405;53.964;13.448;2023-04-10T06:51:10;102255.19;;;5.32;82.39
29433;BME280;16405;53.964;13.448;2023-04-10T06:53:36;102268.22;;;5.68;83.10
29433;BME280;16405;53.964;13.448;2023-04-10T06:56:02;102262.91;;;6.14;82.50
29433;BME280;16405;53.964;13.448;2023-04-10T06:58:29;102261.09;;;6.30;82.04
29433;BME280;16405;53.964;13.448;2023-04-10T07:00:55;102261.84;;;6.60;82.16
29433;BME280;16405;53.964;13.448;2023-04-10T07:03:22;102262.69;;;6.60;81.90
29433;BME280;16405;53.964;13.448;2023-04-10T07:05:48;102261.06;;;6.44;82.16
29433;BME280;16405;53.964;13.448;2023-04-10T07:08:15;102257.50;;;6.55;82.75
29433;BME280;16405;53.964;13.448;2023-04-10T07:10:41;102253.88;;;6.73;83.08
29433;BME280;16405;53.964;13.448;2023-04-10T07:13:06;102254.63;;;6.91;82.86
29433;BME280;16405;53.964;13.448;2023-04-10T07:15:32;102249.31;;;7.05;82.73
29433;BME280;16405;53.964;13.448;2023-04-10T07:17:58;102259.50;;;7.40;82.19
29433;BME280;16405;53.964;13.448;2023-04-10T07:20:24;102259.13;;;7.80;80.61
29433;BME280;16405;53.964;13.448;2023-04-10T07:22:50;102260.63;;;8.02;80.66
29433;BME280;16405;53.964;13.448;2023-04-10T07:25:15;102266.78;;;8.71;79.24
29433;BME280;16405;53.964;13.448;2023-04-10T07:27:42;102263.00;;;8.89;77.96
29433;BME280;16405;53.964;13.448;2023-04-10T07:30:09;102265.28;;;10.10;75.59
29433;BME280;16405;53.964;13.448;2023-04-10T07:32:36;102270.50;;;10.12;74.73
29433;BME280;16405;53.964;13.448;2023-04-10T07:35:04;102267.53;;;10.30;73.34
29433;BME280;16405;53.964;13.448;2023-04-10T07:37:31;102257.44;;;10.07;71.95
29433;BME280;16405;53.964;13.448;2023-04-10T07:39:57;102258.84;;;10.67;72.30
29433;BME280;16405;53.964;13.448;2023-04-10T07:42:23;102260.00;;;11.28;70.81
29433;BME280;16405;53.964;13.448;2023-04-10T07:44:50;102253.13;;;10.87;70.19
29433;BME280;16405;53.964;13.448;2023-04-10T07:47:15;102263.59;;;11.26;69.57
29433;BME280;16405;53.964;13.448;2023-04-10T07:49:41;102266.19;;;11.62;68.97
29433;BME280;16405;53.964;13.448;2023-04-10T07:52:07;102268.03;;;12.24;68.54
29433;BME280;16405;53.964;13.448;2023-04-10T07:54:33;102272.84;;;12.39;66.93
29433;BME280;16405;53.964;13.448;2023-04-10T07:56:59;102268.97;;;13.36;65.46
29433;BME280;16405;53.964;13.448;2023-04-10T07:59:26;102264.22;;;13.45;64.61
29433;BME280;16405;53.964;13.448;2023-04-10T08:01:53;102285.66;;;14.84;62.45
29433;BME280;16405;53.964;13.448;2023-04-10T08:04:20;102269.41;;;14.71;60.68
29433;BME280;16405;53.964;13.448;2023-04-10T08:06:46;102272.25;;;15.94;58.67
29433;BME280;16405;53.964;13.448;2023-04-10T08:09:12;102273.50;;;16.63;57.02
29433;BME280;16405;53.964;13.448;2023-04-10T08:11:37;102280.25;;;17.42;55.68
29433;BME280;16405;53.964;13.448;2023-04-10T08:14:03;102281.75;;;17.83;55.09
29433;BME280;16405;53.964;13.448;2023-04-10T08:16:33;102268.19;;;17.70;53.98
29433;BME280;16405;53.964;13.448;2023-04-10T08:19:00;102268.66;;;17.78;53.71
29433;BME280;16405;53.964;13.448;2023-04-10T08:21:29;102258.31;;;17.55;54.12
29433;BME280;16405;53.964;13.448;2023-04-10T08:23:58;102260.13;;;17.19;55.01
29433;BME280;16405;53.964;13.448;2023-04-10T08:26:26;102256.09;;;17.80;53.64
29433;BME280;16405;53.964;13.448;2023-04-10T08:28:55;102263.97;;;18.33;52.38
29433;BME280;16405;53.964;13.448;2023-04-10T08:31:23;102265.66;;;18.51;51.50
29433;BME280;16405;53.964;13.448;2023-04-10T08:33:49;102270.59;;;18.57;51.27
29433;BME280;16405;53.964;13.448;2023-04-10T08:36:16;102254.63;;;17.57;51.40
29433;BME280;16405;53.964;13.448;2023-04-10T08:38:43;102256.69;;;18.03;51.80
29433;BME280;16405;53.964;13.448;2023-04-10T08:41:12;102247.19;;;17.47;51.87
29433;BME280;16405;53.964;13.448;2023-04-10T08:43:38;102255.03;;;17.15;52.39
29433;BME280;16405;53.964;13.448;2023-04-10T08:46:05;102248.41;;;16.87;52.74
29433;BME280;16405;53.964;13.448;2023-04-10T08:48:57;102240.19;;;16.73;53.50
29433;BME280;16405;53.964;13.448;2023-04-10T08:51:50;102229.50;;;16.17;54.12
29433;BME280;16405;53.964;13.448;2023-04-10T08:54:27;102240.19;;;16.73;54.11
29433;BME280;16405;53.964;13.448;2023-04-10T08:56:55;102238.78;;;16.66;54.06
29433;BME280;16405;53.964;13.448;2023-04-10T08:59:26;102242.31;;;16.66;54.48
29433;BME280;16405;53.964;13.448;2023-04-10T09:01:52;102235.13;;;16.49;54.63
29433;BME280;16405;53.964;13.448;2023-04-10T09:04:19;102226.22;;;16.12;54.74
29433;BME280;16405;53.964;13.448;2023-04-10T09:06:46;102223.19;;;16.01;55.73
29433;BME280;16405;53.964;13.448;2023-04-10T09:09:14;102205.03;;;15.30;55.46
29433;BME280;16405;53.964;13.448;2023-04-10T09:11:59;102203.84;;;15.17;56.39
29433;BME280;16405;53.964;13.448;2023-04-10T09:14:41;102196.63;;;14.78;58.00
29433;BME280;16405;53.964;13.448;2023-04-10T09:17:19;102197.06;;;14.67;58.05
29433;BME280;16405;53.964;13.448;2023-04-10T09:19:50;102197.50;;;14.56;58.38
29433;BME280;16405;53.964;13.448;2023-04-10T09:22:28;102193.97;;;14.78;59.01
29433;BME280;16405;53.964;13.448;2023-04-10T09:24:55;102197.81;;;14.71;58.68
29433;BME280;16405;53.964;13.448;2023-04-10T09:27:36;102181.78;;;14.50;59.51
29433;BME280;16405;53.964;13.448;2023-04-10T09:30:05;102185.63;;;14.43;59.62
29433;BME280;16405;53.964;13.448;2023-04-10T09:32:39;102182.06;;;14.21;60.21
29433;BME280;16405;53.964;13.448;2023-04-10T09:35:10;102172.69;;;13.65;61.51
29433;BME280;16405;53.964;13.448;2023-04-10T09:37:38;102166.19;;;13.73;60.84
29433;BME280;16405;53.964;13.448;2023-04-10T09:40:19;102163.00;;;13.40;61.45
29433;BME280;16405;53.964;13.448;2023-04-10T09:42:48;102154.31;;;13.60;61.90
29433;BME280;16405;53.964;13.448;2023-04-10T09:45:14;102166.38;;;13.92;61.29
29433;BME280;16405;53.964;13.448;2023-04-10T09:48:06;102139.13;;;12.90;61.94
29433;BME280;16405;53.964;13.448;2023-04-10T09:50:37;102150.78;;;13.11;62.99
29433;BME280;16405;53.964;13.448;2023-04-10T09:53:15;102143.28;;;12.97;63.84
29433;BME280;16405;53.964;13.448;2023-04-10T09:55:45;102149.41;;;13.24;63.76
29433;BME280;16405;53.964;13.448;2023-04-10T09:58:13;102137.00;;;13.01;64.93
29433;BME280;16405;53.964;13.448;2023-04-10T10:00:46;102138.66;;;13.30;63.63
29433;BME280;16405;53.964;13.448;2023-04-10T10:03:14;102141.59;;;13.46;63.63
29433;BME280;16405;53.964;13.448;2023-04-10T10:05:47;102136.78;;;13.32;64.25
29433;BME280;16405;53.964;13.448;2023-04-10T10:08:22;102136.00;;;13.79;64.38
29433;BME280;16405;53.964;13.448;2023-04-10T10:10:56;102121.84;;;14.26;63.63
29433;BME280;16405;53.964;13.448;2023-04-10T10:13:32;102129.63;;;14.51;62.53
29433;BME280;16405;53.964;13.448;2023-04-10T10:16:58;102112.66;;;14.12;62.76
29433;BME280;16405;53.964;13.448;2023-04-10T10:19:44;102111.56;;;13.94;63.87
29433;BME280;16405;53.964;13.448;2023-04-10T10:22:17;102110.09;;;13.87;63.23
29433;BME280;16405;53.964;13.448;2023-04-10T10:24:45;102097.78;;;14.52;63.50
29433;BME280;16405;53.964;13.448;2023-04-10T10:27:16;102106.66;;;14.94;62.89
29433;BME280;16405;53.964;13.448;2023-04-10T10:29:43;102105.03;;;15.12;62.06
29433;BME280;16405;53.964;13.448;2023-04-10T10:32:10;102100.38;;;15.56;61.28
29433;BME280;16405;53.964;13.448;2023-04-10T10:34:41;102100.25;;;15.78;60.16
29433;BME280;16405;53.964;13.448;2023-04-10T10:37:07;102095.03;;;15.37;60.20
29433;BME280;16405;53.964;13.448;2023-04-10T10:40:05;102093.53;;;15.11;60.86
29433;BME280;16405;53.964;13.448;2023-04-10T10:43:09;102093.47;;;15.33;61.17
29433;BME280;16405;53.964;13.448;2023-04-10T10:46:22;102086.09;;;15.40;59.04
29433;BME280;16405;53.964;13.448;2023-04-10T10:48:57;102083.72;;;15.13;60.80
29433;BME280;16405;53.964;13.448;2023-04-10T10:51:47;102072.97;;;14.55;61.50
29433;BME280;16405;53.964;13.448;2023-04-10T10:54:33;102075.31;;;14.83;61.56
29433;BME280;16405;53.964;13.448;2023-04-10T10:57:01;102080.09;;;14.95;62.13
29433;BME280;16405;53.964;13.448;2023-04-10T11:02:23;102069.22;;;14.61;61.88
29433;BME280;16405;53.964;13.448;2023-04-10T11:04:49;102067.38;;;15.04;61.36
29433;BME280;16405;53.964;13.448;2023-04-10T11:07:19;102065.81;;;15.18;60.43
29433;BME280;16405;53.964;13.448;2023-04-10T11:09:55;102073.66;;;15.41;59.77
29433;BME280;16405;53.964;13.448;2023-04-10T11:12:24;102053.56;;;14.75;60.86
29433;BME280;16405;53.964;13.448;2023-04-10T11:15:02;102054.09;;;14.83;61.35
29433;BME280;16405;53.964;13.448;2023-04-10T11:17:49;102048.69;;;15.26;60.87
29433;BME280;16405;53.964;13.448;2023-04-10T11:20:21;102041.09;;;14.77;61.43
29433;BME280;16405;53.964;13.448;2023-04-10T11:23:13;102035.75;;;14.99;61.29
29433;BME280;16405;53.964;13.448;2023-04-10T11:25:57;102034.34;;;14.70;61.29
29433;BME280;16405;53.964;13.448;2023-04-10T11:31:21;102021.97;;;14.48;61.55
29433;BME280;16405;53.964;13.448;2023-04-10T11:34:02;102017.91;;;14.82;62.98
29433;BME280;16405;53.964;13.448;2023-04-10T11:36:39;102007.56;;;14.76;62.37
29433;BME280;16405;53.964;13.448;2023-04-10T11:39:12;102009.44;;;14.74;61.85
29433;BME280;16405;53.964;13.448;2023-04-10T11:41:42;102000.25;;;14.81;61.90
29433;BME280;16405;53.964;13.448;2023-04-10T11:44:32;101996.88;;;14.98;61.35
29433;BME280;16405;53.964;13.448;2023-04-10T11:47:03;102002.50;;;15.30;61.04
29433;BME280;16405;53.964;13.448;2023-04-10T11:49:33;101999.19;;;15.44;60.71
29433;BME280;16405;53.964;13.448;2023-04-10T11:52:04;101993.47;;;15.53;61.39
29433;BME280;16405;53.964;13.448;2023-04-10T11:54:31;101981.53;;;15.81;60.30
29433;BME280;16405;53.964;13.448;2023-04-10T11:57:04;101979.81;;;15.98;60.47
29433;BME280;16405;53.964;13.448;2023-04-10T11:59:32;101987.16;;;16.28;60.13
29433;BME280;16405;53.964;13.448;2023-04-10T12:02:13;101965.63;;;15.81;59.87
29433;BME280;16405;53.964;13.448;2023-04-10T12:04:45;101976.47;;;16.30;59.90
29433;BME280;16405;53.964;13.448;2023-04-10T12:07:14;101958.31;;;16.03;60.16
29433;BME280;16405;53.964;13.448;2023-04-10T12:09:43;101962.25;;;16.13;58.98
29433;BME280;16405;53.964;13.448;2023-04-10T12:12:11;101952.72;;;16.09;58.59
29433;BME280;16405;53.964;13.448;2023-04-10T12:14:45;101951.91;;;16.07;58.71
29433;BME280;16405;53.964;13.448;2023-04-10T12:17:12;101938.00;;;16.02;58.49
29433;BME280;16405;53.964;13.448;2023-04-10T12:19:42;101933.94;;;16.30;58.41
29433;BME280;16405;53.964;13.448;2023-04-10T12:22:11;101922.69;;;16.07;58.22
29433;BME280;16405;53.964;13.448;2023-04-10T12:24:48;101919.63;;;16.32;57.95
29433;BME280;16405;53.964;13.448;2023-04-10T12:27:26;101926.13;;;16.27;58.31
29433;BME280;16405;53.964;13.448;2023-04-10T12:29:56;101910.63;;;15.83;59.03
29433;BME280;16405;53.964;13.448;2023-04-10T12:32:25;101911.59;;;15.99;60.15
29433;BME280;16405;53.964;13.448;2023-04-10T12:34:57;101908.88;;;16.18;59.14
29433;BME280;16405;53.964;13.448;2023-04-10T12:37:49;101909.16;;;16.29;58.64
29433;BME280;16405;53.964;13.448;2023-04-10T12:40:15;101897.69;;;16.29;58.03
29433;BME280;16405;53.964;13.448;2023-04-10T12:42:42;101907.28;;;16.65;59.04
29433;BME280;16405;53.964;13.448;2023-04-10T12:45:09;101891.69;;;16.41;57.64
29433;BME280;16405;53.964;13.448;2023-04-10T12:47:50;101880.44;;;16.03;57.90
29433;BME280;16405;53.964;13.448;2023-04-10T12:50:19;101878.75;;;16.00;58.14
29433;BME280;16405;53.964;13.448;2023-04-10T12:53:04;101878.31;;;16.09;57.43
29433;BME280;16405;53.964;13.448;2023-04-10T12:55:34;101867.69;;;16.09;56.06
29433;BME280;16405;53.964;13.448;2023-04-10T12:58:17;101881.00;;;16.43;57.98
29433;BME280;16405;53.964;13.448;2023-04-10T13:00:47;101867.94;;;16.38;57.07
29433;BME280;16405;53.964;13.448;2023-04-10T13:03:13;101865.66;;;16.48;57.67
29433;BME280;16405;53.964;13.448;2023-04-10T13:05:39;101857.53;;;16.51;56.94
29433;BME280;16405;53.964;13.448;2023-04-10T13:08:05;101850.72;;;16.45;55.47
29433;BME280;16405;53.964;13.448;2023-04-10T13:10:31;101842.69;;;16.47;55.81